createdAt,value
2023-06-19T00:08:14.376Z,57.85
2023-06-19T00:10:42.248Z,58.13
2023-06-19T00:13:09.818Z,58.10
2023-06-19T00:15:37.375Z,58.48
2023-06-19T00:18:05.641Z,58.66
2023-06-19T00:23:24.481Z,58.94
2023-06-19T00:25:52.024Z,59.12
2023-06-19T00:28:21.233Z,59.23
2023-06-19T00:30:48.871Z,59.19
2023-06-19T00:33:16.364Z,59.24
2023-06-19T00:35:44.699Z,59.74
2023-06-19T00:38:13.313Z,60.45
2023-06-19T00:40:40.838Z,60.89
2023-06-19T00:43:10.259Z,61.56
2023-06-19T00:45:37.898Z,61.86
2023-06-19T00:48:05.664Z,62.34
2023-06-19T00:50:33.254Z,63.10
2023-06-19T00:53:01.122Z,63.75
2023-06-19T00:55:31.734Z,64.23
2023-06-19T00:57:59.862Z,64.66
2023-06-19T01:00:27.486Z,65.03
2023-06-19T01:02:55.131Z,65.40
2023-06-19T01:05:22.645Z,65.69
2023-06-19T01:08:14.556Z,65.91
2023-06-19T01:10:44.990Z,66.07
2023-06-19T01:13:23.412Z,66.36
2023-06-19T01:15:51.392Z,66.70
2023-06-19T01:18:18.925Z,66.90
2023-06-19T01:20:46.893Z,67.30
2023-06-19T01:23:14.705Z,67.48
2023-06-19T01:25:42.207Z,67.72
2023-06-19T01:28:12.096Z,67.95
2023-06-19T01:30:42.297Z,68.16
2023-06-19T01:33:24.518Z,68.25
2023-06-19T01:35:52.162Z,68.49
2023-06-19T01:38:21.376Z,68.66
2023-06-19T01:40:50.021Z,68.65
2023-06-19T01:43:18.294Z,68.82
2023-06-19T01:45:45.894Z,68.93
2023-06-19T01:48:15.020Z,68.91
2023-06-19T01:50:49.416Z,69.01
2023-06-19T01:53:17.086Z,68.89
2023-06-19T01:55:47.501Z,68.71
2023-06-19T01:58:14.991Z,68.74
2023-06-19T02:00:42.493Z,68.65
2023-06-19T02:03:10.120Z,68.67
2023-06-19T02:05:40.806Z,68.88
2023-06-19T02:08:08.657Z,68.82
2023-06-19T02:10:37.903Z,68.80
2023-06-19T02:13:05.536Z,68.88
2023-06-19T02:15:33.807Z,68.90
2023-06-19T02:18:01.497Z,68.97
2023-06-19T02:20:29.122Z,68.68
2023-06-19T02:22:57.885Z,68.38
2023-06-19T02:25:25.398Z,68.15
2023-06-19T02:27:52.975Z,68.14
2023-06-19T02:30:20.566Z,68.08
2023-06-19T02:32:48.145Z,68.14
2023-06-19T02:35:16.765Z,68.35
2023-06-19T02:37:44.451Z,68.57
2023-06-19T02:40:12.345Z,68.61
2023-06-19T02:42:39.779Z,68.65
2023-06-19T02:45:07.861Z,68.90
2023-06-19T02:47:35.445Z,68.75
2023-06-19T02:50:04.371Z,68.68
2023-06-19T02:52:33.065Z,68.60
2023-06-19T02:55:00.604Z,68.56
2023-06-19T02:57:28.080Z,68.36
2023-06-19T02:59:55.644Z,68.29
2023-06-19T03:02:23.242Z,68.12
2023-06-19T03:04:51.334Z,68.01
2023-06-19T03:07:18.906Z,67.84
2023-06-19T03:09:46.376Z,67.75
2023-06-19T03:12:14.475Z,67.67
2023-06-19T03:14:42.305Z,67.72
2023-06-19T03:17:10.669Z,67.44
2023-06-19T03:19:38.667Z,67.66
2023-06-19T03:22:06.308Z,67.71
2023-06-19T03:24:33.963Z,67.57
2023-06-19T03:27:13.262Z,67.63
2023-06-19T03:29:40.812Z,67.70
2023-06-19T03:32:09.296Z,67.76
2023-06-19T03:34:36.837Z,68.08
2023-06-19T03:37:07.146Z,68.07
2023-06-19T03:39:35.387Z,68.17
2023-06-19T03:42:09.822Z,68.52
2023-06-19T03:44:37.770Z,68.75
2023-06-19T03:47:05.736Z,68.68
2023-06-19T03:49:33.226Z,68.80
2023-06-19T03:52:03.626Z,69.05
2023-06-19T03:54:31.126Z,69.24
2023-06-19T03:56:58.656Z,69.42
2023-06-19T03:59:26.440Z,69.81
2023-06-19T04:01:54.276Z,70.06
2023-06-19T04:04:22.089Z,70.09
2023-06-19T04:06:49.711Z,70.33
2023-06-19T04:09:17.365Z,70.33
2023-06-19T04:11:44.925Z,70.22
2023-06-19T04:14:13.721Z,70.08
2023-06-19T04:16:41.200Z,69.82
2023-06-19T04:19:11.094Z,69.81
2023-06-19T04:21:38.584Z,69.65
2023-06-19T04:24:10.264Z,69.46
2023-06-19T04:26:38.160Z,69.53
2023-06-19T04:29:08.547Z,69.35
2023-06-19T04:31:42.834Z,69.20
2023-06-19T04:34:10.557Z,68.74
2023-06-19T04:36:38.407Z,68.51
2023-06-19T04:39:07.258Z,68.20
2023-06-19T04:41:34.753Z,67.86
2023-06-19T04:44:04.350Z,67.50
2023-06-19T04:46:31.996Z,67.01
2023-06-19T04:48:59.617Z,66.72
2023-06-19T04:51:27.644Z,65.92
2023-06-19T04:53:55.236Z,65.23
2023-06-19T04:56:23.165Z,64.52
2023-06-19T04:58:51.313Z,64.21
2023-06-19T05:01:18.853Z,64.09
2023-06-19T05:03:47.334Z,63.98
2023-06-19T05:06:14.864Z,63.93
2023-06-19T05:08:42.789Z,63.93
2023-06-19T05:11:10.340Z,63.75
2023-06-19T05:13:37.835Z,63.59
2023-06-19T05:16:05.355Z,63.49
2023-06-19T05:18:32.941Z,63.58
2023-06-19T05:21:00.405Z,63.59
2023-06-19T05:23:27.914Z,63.95
2023-06-19T05:25:55.507Z,63.86
2023-06-19T05:28:23.125Z,63.93
2023-06-19T05:30:51.451Z,64.32
2023-06-19T05:33:19.090Z,64.32
2023-06-19T05:35:52.490Z,64.50
2023-06-19T05:38:20.629Z,63.93
2023-06-19T05:40:48.090Z,62.75
2023-06-19T05:43:15.706Z,62.18
2023-06-19T05:45:43.278Z,60.74
2023-06-19T05:48:10.865Z,59.02
2023-06-19T05:50:38.437Z,57.22
2023-06-19T05:53:06.473Z,56.09
2023-06-19T05:55:34.318Z,55.15
2023-06-19T05:58:03.688Z,53.08
2023-06-19T06:00:32.122Z,52.65
2023-06-19T06:03:03.485Z,52.71
2023-06-19T06:05:31.100Z,52.96
2023-06-19T06:07:58.574Z,52.91
2023-06-19T06:10:26.652Z,53.05
2023-06-19T06:12:54.467Z,53.45
2023-06-19T06:15:22.103Z,53.47
2023-06-19T06:17:49.685Z,52.66
2023-06-19T06:20:17.973Z,51.57
2023-06-19T06:22:45.440Z,50.34
2023-06-19T06:25:13.929Z,49.96
2023-06-19T06:27:42.386Z,49.34
2023-06-19T06:30:12.656Z,48.73
2023-06-19T06:32:40.357Z,47.73
2023-06-19T06:35:08.566Z,47.30
2023-06-19T06:37:36.227Z,47.48
2023-06-19T06:40:06.525Z,47.04
2023-06-19T06:42:34.184Z,46.42
2023-06-19T06:45:01.691Z,46.37
2023-06-19T06:47:29.308Z,45.83
2023-06-19T06:49:57.126Z,45.57
2023-06-19T06:52:25.242Z,45.26
2023-06-19T06:54:52.808Z,45.03
2023-06-19T06:57:20.302Z,43.84
2023-06-19T06:59:48.144Z,43.30
2023-06-19T07:02:15.665Z,43.03
2023-06-19T07:04:43.346Z,42.87
2023-06-19T07:07:10.915Z,42.97
2023-06-19T07:09:38.351Z,42.80
2023-06-19T07:12:08.258Z,43.01
2023-06-19T07:14:35.767Z,43.26
2023-06-19T07:17:03.428Z,43.73
2023-06-19T07:19:31.007Z,44.16
2023-06-19T07:21:58.785Z,44.24
2023-06-19T07:24:26.686Z,44.26
2023-06-19T07:26:54.630Z,44.28
2023-06-19T07:29:22.843Z,44.93
2023-06-19T07:31:50.337Z,45.77
2023-06-19T07:34:17.926Z,46.54
2023-06-19T07:36:45.545Z,47.33
2023-06-19T07:39:13.206Z,47.76
2023-06-19T07:41:40.866Z,48.08
2023-06-19T07:44:08.466Z,47.98
2023-06-19T07:46:36.083Z,47.60
2023-06-19T07:49:03.837Z,47.41
2023-06-19T07:51:31.387Z,47.52
2023-06-19T07:53:58.846Z,47.00
2023-06-19T08:02:28.683Z,45.83
2023-06-19T08:04:56.325Z,44.79
2023-06-19T08:07:23.990Z,44.27
2023-06-19T08:10:00.307Z,44.33
2023-06-19T08:12:35.643Z,43.84
2023-06-19T08:15:03.247Z,43.03
2023-06-19T08:17:30.749Z,42.49
2023-06-19T08:19:58.275Z,42.78
2023-06-19T08:22:26.342Z,42.93
2023-06-19T08:24:53.984Z,43.22
2023-06-19T08:27:21.427Z,43.21
2023-06-19T08:29:48.960Z,43.42
2023-06-19T08:32:16.941Z,43.79
2023-06-19T08:34:44.440Z,43.82
2023-06-19T08:37:11.994Z,43.83
2023-06-19T08:39:40.357Z,43.68
2023-06-19T08:42:08.820Z,43.36
2023-06-19T08:44:39.024Z,43.07
2023-06-19T08:47:07.472Z,42.73
2023-06-19T08:49:35.659Z,41.91
2023-06-19T08:52:04.781Z,41.92
2023-06-19T08:54:32.587Z,42.39
2023-06-19T08:57:04.171Z,42.33
2023-06-19T08:59:33.248Z,42.60
2023-06-19T09:02:00.880Z,42.11
2023-06-19T09:04:32.408Z,40.54
2023-06-19T09:07:04.165Z,39.62
2023-06-19T09:09:47.966Z,39.27
2023-06-19T09:12:16.385Z,39.25
2023-06-19T09:14:47.109Z,39.35
2023-06-19T09:17:18.932Z,39.93
2023-06-19T09:19:53.004Z,40.24
2023-06-19T09:22:22.297Z,40.05
2023-06-19T09:24:50.115Z,39.89
2023-06-19T09:27:22.094Z,39.84
2023-06-19T09:29:50.934Z,39.70
2023-06-19T09:32:18.996Z,39.91
2023-06-19T09:34:47.416Z,39.96
2023-06-19T09:37:14.974Z,40.00
2023-06-19T09:39:42.580Z,40.11
2023-06-19T09:42:13.501Z,40.05
2023-06-19T09:44:46.383Z,40.01
2023-06-19T09:47:24.823Z,40.01
2023-06-19T09:49:56.141Z,39.53
2023-06-19T09:52:24.593Z,39.63
2023-06-19T09:54:54.318Z,39.64
2023-06-19T09:57:22.268Z,39.73
2023-06-19T09:59:54.437Z,39.44
2023-06-19T10:02:22.383Z,39.45
2023-06-19T10:04:51.814Z,39.55
2023-06-19T10:07:33.965Z,39.44
2023-06-19T10:10:08.210Z,39.03
2023-06-19T10:12:43.327Z,38.85
2023-06-19T10:15:12.725Z,38.86
2023-06-19T10:17:45.147Z,38.74
2023-06-19T10:20:22.150Z,38.79
2023-06-19T10:23:06.593Z,38.77
2023-06-19T10:25:44.615Z,38.50
2023-06-19T10:28:28.843Z,37.89
2023-06-19T10:31:01.858Z,37.62
2023-06-19T10:33:34.002Z,37.36
2023-06-19T10:36:02.362Z,36.99
2023-06-19T10:38:29.945Z,36.91
2023-06-19T10:40:57.535Z,37.04
2023-06-19T10:43:33.146Z,37.38
2023-06-19T10:46:03.563Z,37.45
2023-06-19T10:48:31.411Z,37.38
2023-06-19T10:50:58.894Z,37.01
2023-06-19T10:53:27.193Z,36.89
2023-06-19T10:56:01.786Z,36.94
2023-06-19T10:58:30.064Z,36.90
2023-06-19T11:00:58.286Z,36.75
2023-06-19T11:03:26.018Z,36.37
2023-06-19T11:05:53.811Z,36.12
2023-06-19T11:08:25.066Z,36.28
2023-06-19T11:10:52.507Z,36.39
2023-06-19T11:13:20.638Z,36.59
2023-06-19T11:15:51.849Z,36.49
2023-06-19T11:18:19.914Z,36.39
2023-06-19T11:20:52.000Z,36.10
2023-06-19T11:23:30.635Z,35.90
2023-06-19T11:26:05.198Z,35.98
2023-06-19T11:28:32.832Z,35.88
2023-06-19T11:31:01.726Z,35.65
2023-06-19T11:33:30.658Z,35.57
2023-06-19T11:36:01.037Z,35.24
2023-06-19T11:38:28.792Z,35.07
2023-06-19T11:40:57.129Z,34.57
2023-06-19T11:43:32.135Z,34.45
2023-06-19T11:46:03.903Z,34.26
2023-06-19T11:48:32.529Z,34.28
2023-06-19T11:51:00.077Z,34.53
2023-06-19T11:53:27.664Z,34.21
2023-06-19T11:55:55.217Z,33.87
2023-06-19T11:58:23.008Z,34.03
2023-06-19T12:00:50.460Z,34.21
2023-06-19T12:03:18.133Z,34.20
2023-06-19T12:05:45.772Z,34.26
2023-06-19T12:08:13.331Z,34.14
2023-06-19T12:10:40.860Z,34.13
2023-06-19T12:13:08.416Z,34.08
2023-06-19T12:15:37.835Z,33.80
2023-06-19T12:18:08.503Z,33.70
2023-06-19T12:20:36.164Z,34.07
2023-06-19T12:23:04.034Z,34.14
2023-06-19T12:25:31.552Z,34.10
2023-06-19T12:27:59.036Z,34.18
2023-06-19T12:30:26.811Z,34.46
2023-06-19T12:32:54.608Z,34.78
2023-06-19T12:35:23.429Z,34.84
2023-06-19T12:37:50.914Z,34.84
2023-06-19T12:40:18.906Z,34.75
2023-06-19T12:42:47.192Z,34.88
2023-06-19T12:45:14.801Z,34.74
2023-06-19T12:47:42.319Z,34.57
2023-06-19T12:50:11.511Z,34.38
2023-06-19T12:52:39.094Z,34.15
2023-06-19T12:55:06.921Z,34.05
2023-06-19T12:57:34.556Z,33.90
2023-06-19T13:00:02.086Z,33.52
2023-06-19T13:02:29.691Z,33.35
2023-06-19T13:04:58.523Z,33.17
2023-06-19T13:07:26.676Z,33.11
2023-06-19T13:09:54.265Z,33.27
2023-06-19T13:12:23.389Z,33.34
2023-06-19T13:14:50.894Z,33.97
2023-06-19T13:17:18.411Z,33.96
2023-06-19T13:19:46.020Z,33.82
2023-06-19T13:22:13.485Z,33.86
2023-06-19T13:24:41.163Z,33.89
2023-06-19T13:27:08.853Z,33.90
2023-06-19T13:29:36.549Z,33.64
2023-06-19T13:32:04.359Z,33.77
2023-06-19T13:34:32.359Z,33.18
2023-06-19T13:36:59.914Z,33.05
2023-06-19T13:39:27.461Z,32.76
2023-06-19T13:41:54.979Z,32.51
2023-06-19T13:44:22.499Z,32.24
2023-06-19T13:46:50.536Z,32.13
2023-06-19T13:49:18.153Z,32.21
2023-06-19T13:51:45.643Z,32.17
2023-06-19T13:54:14.429Z,32.01
2023-06-19T13:56:42.038Z,31.80
2023-06-19T13:59:09.788Z,31.70
2023-06-19T14:01:37.344Z,31.72
2023-06-19T14:04:05.291Z,31.34
2023-06-19T14:06:32.875Z,31.26
2023-06-19T14:09:00.455Z,31.44
2023-06-19T14:11:28.259Z,31.21
2023-06-19T14:13:56.039Z,30.39
2023-06-19T14:16:23.656Z,29.88
2023-06-19T14:18:51.325Z,29.52
2023-06-19T14:21:19.061Z,29.28
2023-06-19T14:23:46.842Z,28.99
2023-06-19T14:26:14.378Z,29.11
2023-06-19T14:28:41.978Z,29.42
2023-06-19T14:31:09.568Z,29.68
2023-06-19T14:33:38.334Z,29.53
2023-06-19T14:36:05.992Z,29.40
2023-06-19T14:38:35.130Z,29.42
2023-06-19T14:41:02.937Z,29.48
2023-06-19T14:43:33.583Z,29.15
2023-06-19T14:46:01.806Z,29.28
2023-06-19T14:48:31.591Z,29.14
2023-06-19T14:50:59.359Z,28.97
2023-06-19T14:53:26.941Z,28.83
2023-06-19T14:55:54.509Z,28.92
2023-06-19T14:58:22.120Z,28.77
2023-06-19T15:00:49.785Z,28.78
2023-06-19T15:03:17.520Z,29.03
2023-06-19T15:05:45.188Z,29.10
2023-06-19T15:08:12.747Z,29.44
2023-06-19T15:10:40.415Z,29.60
2023-06-19T15:13:10.762Z,29.67
2023-06-19T15:15:38.337Z,29.62
2023-06-19T15:18:08.462Z,29.60
2023-06-19T15:20:36.338Z,29.57
2023-06-19T15:23:03.987Z,29.60
2023-06-19T15:25:31.529Z,29.67
2023-06-19T15:27:59.101Z,29.70
2023-06-19T15:30:26.832Z,29.83
2023-06-19T15:32:54.689Z,30.02
2023-06-19T15:35:22.566Z,30.03
2023-06-19T15:37:50.107Z,30.15
2023-06-19T15:40:17.568Z,30.51
2023-06-19T15:42:45.563Z,30.64
2023-06-19T15:45:14.384Z,30.95
2023-06-19T15:47:41.885Z,31.15
2023-06-19T15:50:11.155Z,31.32
2023-06-19T15:52:38.888Z,31.42
2023-06-19T15:55:06.947Z,31.64
2023-06-19T15:57:34.723Z,31.85
2023-06-19T16:00:02.556Z,32.00
2023-06-19T16:02:44.566Z,32.14
2023-06-19T16:05:12.469Z,32.02
2023-06-19T16:07:40.000Z,32.45
2023-06-19T16:10:08.360Z,32.50
2023-06-19T16:12:36.220Z,32.50
2023-06-19T16:15:04.132Z,32.52
2023-06-19T16:17:32.822Z,32.79
2023-06-19T16:20:00.372Z,32.89
2023-06-19T16:22:28.361Z,32.94
2023-06-19T16:24:55.866Z,33.17
2023-06-19T16:27:23.459Z,33.20
2023-06-19T16:29:50.971Z,33.23
2023-06-19T16:32:19.010Z,33.16
2023-06-19T16:34:46.616Z,33.37
2023-06-19T16:37:14.177Z,33.35
2023-06-19T16:39:42.106Z,33.35
2023-06-19T16:42:10.190Z,33.16
2023-06-19T16:44:37.692Z,33.15
2023-06-19T16:47:05.673Z,33.28
2023-06-19T16:49:33.528Z,33.41
2023-06-19T16:52:01.601Z,33.46
2023-06-19T16:54:29.168Z,33.37
2023-06-19T16:56:57.082Z,33.55
2023-06-19T16:59:24.791Z,33.53
2023-06-19T17:01:52.489Z,33.57
2023-06-19T17:04:20.855Z,33.62
2023-06-19T17:06:48.414Z,33.75
2023-06-19T17:09:16.146Z,33.85
2023-06-19T17:11:43.773Z,33.82
2023-06-19T17:14:11.415Z,33.96
2023-06-19T17:16:38.967Z,34.03
2023-06-19T17:19:06.857Z,34.22
2023-06-19T17:21:34.797Z,34.45
2023-06-19T17:24:02.790Z,34.31
2023-06-19T17:26:30.658Z,34.25
2023-06-19T17:28:59.253Z,34.53
2023-06-19T17:31:26.880Z,34.79
2023-06-19T17:33:54.387Z,34.81
2023-06-19T17:36:22.215Z,34.83
2023-06-19T17:38:49.819Z,34.98
2023-06-19T17:41:17.530Z,34.85
2023-06-19T17:43:45.285Z,34.91
2023-06-19T17:46:13.055Z,35.22
2023-06-19T17:48:42.429Z,35.39
2023-06-19T17:51:10.065Z,35.60
2023-06-19T17:53:37.721Z,36.41
2023-06-19T17:56:06.825Z,38.80
2023-06-19T17:58:34.856Z,40.46
2023-06-19T18:01:02.358Z,41.99
2023-06-19T18:03:31.161Z,43.70
2023-06-19T18:05:58.987Z,44.71
2023-06-19T18:08:27.058Z,45.78
2023-06-19T18:10:54.822Z,46.48
2023-06-19T18:13:22.583Z,47.49
2023-06-19T18:16:02.796Z,48.36
2023-06-19T18:18:38.133Z,49.58
2023-06-19T18:21:05.736Z,50.94
2023-06-19T18:23:33.338Z,51.60
2023-06-19T18:26:01.069Z,52.22
2023-06-19T18:28:29.204Z,52.75
2023-06-19T18:30:57.561Z,53.17
2023-06-19T18:33:25.364Z,53.84
2023-06-19T18:35:53.056Z,54.43
2023-06-19T18:38:21.054Z,54.84
2023-06-19T18:40:49.354Z,55.44
2023-06-19T18:43:16.945Z,56.24
2023-06-19T18:45:44.997Z,56.89
2023-06-19T18:48:12.688Z,57.46
2023-06-19T18:50:40.424Z,57.45
2023-06-19T18:53:08.595Z,57.86
2023-06-19T18:55:38.961Z,58.41
2023-06-19T18:58:07.801Z,59.22
2023-06-19T19:00:35.744Z,59.79
2023-06-19T19:03:03.586Z,60.35
2023-06-19T19:05:32.787Z,61.18
2023-06-19T19:08:00.369Z,61.52
2023-06-19T19:10:28.106Z,61.92
2023-06-19T19:12:55.921Z,62.01
2023-06-19T19:15:23.491Z,62.15
2023-06-19T19:17:52.180Z,62.22
2023-06-19T19:20:19.935Z,62.55
2023-06-19T19:22:47.663Z,62.74
2023-06-19T19:25:15.442Z,62.99
2023-06-19T19:27:43.348Z,62.91
2023-06-19T19:30:11.454Z,63.02
2023-06-19T19:32:39.185Z,63.09
2023-06-19T19:35:08.404Z,63.35
2023-06-19T19:37:36.045Z,63.69
2023-06-19T19:40:04.902Z,64.35
2023-06-19T19:42:32.587Z,65.12
2023-06-19T19:45:00.285Z,65.71
2023-06-19T19:47:27.952Z,66.52
2023-06-19T19:49:55.780Z,67.10
2023-06-19T19:52:25.588Z,67.63
2023-06-19T19:54:53.366Z,68.01
2023-06-19T19:57:21.175Z,68.50
2023-06-19T19:59:49.124Z,68.96
2023-06-19T20:02:16.762Z,69.42
2023-06-19T20:04:44.290Z,69.99
2023-06-19T20:07:11.832Z,70.50
2023-06-19T20:09:39.888Z,71.13
2023-06-19T20:12:20.453Z,71.64
2023-06-19T20:14:49.661Z,71.88
2023-06-19T20:17:17.346Z,72.41
2023-06-19T20:19:44.965Z,72.73
2023-06-19T20:22:13.136Z,72.92
2023-06-19T20:24:41.226Z,73.24
2023-06-19T20:27:11.553Z,73.15
2023-06-19T20:29:40.247Z,73.31
2023-06-19T20:32:08.168Z,73.18
2023-06-19T20:34:35.841Z,73.19
2023-06-19T20:37:04.194Z,73.33
2023-06-19T20:39:32.510Z,73.42
2023-06-19T20:42:03.179Z,73.57
2023-06-19T20:44:30.764Z,73.56
2023-06-19T20:47:01.358Z,73.48
2023-06-19T20:49:29.297Z,73.36
2023-06-19T20:51:56.761Z,73.75
2023-06-19T20:54:24.520Z,73.59
2023-06-19T20:56:52.198Z,73.36
2023-06-19T20:59:19.746Z,73.23
2023-06-19T21:01:47.448Z,73.29
2023-06-19T21:04:15.439Z,73.32
2023-06-19T21:06:43.033Z,73.09
2023-06-19T21:09:10.966Z,72.98
2023-06-19T21:11:41.533Z,73.00
2023-06-19T21:14:09.098Z,73.08
2023-06-19T21:16:37.393Z,73.24
2023-06-19T21:19:05.340Z,73.52
2023-06-19T21:21:32.851Z,73.59
2023-06-19T21:24:00.400Z,73.89
2023-06-19T21:26:27.970Z,74.22
2023-06-19T21:28:55.727Z,74.30
2023-06-19T21:31:23.298Z,74.75
2023-06-19T21:33:51.056Z,74.87
2023-06-19T21:36:18.634Z,75.06
2023-06-19T21:38:46.168Z,75.49
2023-06-19T21:41:13.737Z,76.30
2023-06-19T21:43:41.320Z,77.05
2023-06-19T21:46:09.292Z,77.12
2023-06-19T21:48:37.066Z,77.10
2023-06-19T21:51:04.708Z,77.26
2023-06-19T21:53:32.275Z,77.47
2023-06-19T21:56:00.068Z,77.61
2023-06-19T21:58:27.751Z,77.59
2023-06-19T22:00:55.272Z,77.98
2023-06-19T22:03:22.958Z,77.96
2023-06-19T22:05:50.550Z,78.01
2023-06-19T22:08:22.414Z,78.25
2023-06-19T22:10:55.072Z,78.47
2023-06-19T22:13:22.667Z,78.31
2023-06-19T22:15:51.728Z,78.59
2023-06-19T22:18:19.467Z,78.75
2023-06-19T22:20:46.925Z,79.07
2023-06-19T22:23:14.446Z,79.35
2023-06-19T22:25:42.133Z,79.62
2023-06-19T22:28:09.753Z,80.17
2023-06-19T22:30:37.476Z,80.51
2023-06-19T22:33:07.402Z,80.34
2023-06-19T22:35:35.030Z,80.45
2023-06-19T22:38:02.509Z,80.50
2023-06-19T22:40:30.190Z,80.45
2023-06-19T22:42:57.687Z,80.43
2023-06-19T22:45:25.450Z,80.46
2023-06-19T22:47:53.261Z,80.58
2023-06-19T22:50:20.706Z,80.70
2023-06-19T22:52:48.397Z,80.83
2023-06-19T22:55:15.997Z,80.64
2023-06-19T22:57:43.475Z,80.56
2023-06-19T23:00:14.380Z,80.76
2023-06-19T23:02:43.072Z,80.84
2023-06-19T23:05:11.181Z,81.01
2023-06-19T23:07:39.123Z,81.14
2023-06-19T23:10:09.007Z,81.16
2023-06-19T23:12:36.887Z,81.32
2023-06-19T23:15:04.731Z,81.43
2023-06-19T23:17:32.233Z,81.65
2023-06-19T23:19:59.844Z,82.08
2023-06-19T23:22:27.417Z,82.22
2023-06-19T23:24:55.074Z,82.47
2023-06-19T23:27:22.580Z,82.87
2023-06-19T23:29:52.515Z,83.33
2023-06-19T23:32:21.989Z,83.82
2023-06-19T23:34:52.429Z,84.20
2023-06-19T23:37:19.942Z,84.62
2023-06-19T23:39:47.632Z,85.00
2023-06-19T23:42:15.213Z,85.12
2023-06-19T23:44:42.748Z,85.34
2023-06-19T23:47:10.249Z,85.76
2023-06-19T23:49:42.441Z,86.14
2023-06-19T23:52:10.443Z,86.53
2023-06-19T23:54:38.415Z,86.66
2023-06-19T23:57:07.097Z,86.99
2023-06-19T23:59:35.044Z,87.35
